createdAt,value
2018-11-02T00:01:05.814Z,96621.56
2018-11-02T00:03:33.095Z,96626.48
2018-11-02T00:06:00.317Z,96622.73
2018-11-02T00:08:27.618Z,96627.70
2018-11-02T00:10:54.828Z,96630.16
2018-11-02T00:13:22.123Z,96623.08
2018-11-02T00:15:49.429Z,96627.95
2018-11-02T00:18:16.722Z,96631.59
2018-11-02T00:20:43.958Z,96640.46
2018-11-02T00:23:11.237Z,96648.91
2018-11-02T00:25:38.475Z,96655.46
2018-11-02T00:28:05.857Z,96661.94
2018-11-02T00:30:33.125Z,96668.66
2018-11-02T00:33:00.393Z,96660.27
2018-11-02T00:35:27.743Z,96672.69
2018-11-02T00:37:54.965Z,96667.12
2018-11-02T00:40:22.145Z,96667.59
2018-11-02T00:42:49.338Z,96671.45
2018-11-02T00:45:16.612Z,96665.59
2018-11-02T00:47:43.925Z,96667.92
2018-11-02T00:50:11.929Z,96673.28
2018-11-02T00:52:39.176Z,96673.73
2018-11-02T00:55:06.989Z,96679.45
2018-11-02T00:57:34.255Z,96674.11
2018-11-02T01:00:01.527Z,96680.27
2018-11-02T01:02:28.787Z,96679.89
2018-11-02T01:04:56.036Z,96676.86
2018-11-02T01:07:23.302Z,96672.81
2018-11-02T01:09:50.531Z,96665.80
2018-11-02T01:12:17.804Z,96667.09
2018-11-02T01:14:45.040Z,96675.97
2018-11-02T01:17:12.349Z,96667.34
2018-11-02T01:19:39.647Z,96673.52
2018-11-02T01:22:06.983Z,96669.33
2018-11-02T01:24:34.226Z,96675.26
2018-11-02T01:27:01.517Z,96676.55
2018-11-02T01:29:29.189Z,96675.80
2018-11-02T01:31:56.703Z,96673.27
2018-11-02T01:34:24.010Z,96675.72
2018-11-02T01:36:51.152Z,96675.88
2018-11-02T01:39:18.403Z,96669.41
2018-11-02T01:41:45.708Z,96669.70
2018-11-02T01:44:12.945Z,96667.55
2018-11-02T01:46:40.219Z,96677.77
2018-11-02T01:49:07.643Z,96676.01
2018-11-02T01:51:34.923Z,96677.86
2018-11-02T01:54:02.201Z,96678.02
2018-11-02T01:56:29.525Z,96680.13
2018-11-02T01:59:00.003Z,96674.50
2018-11-02T02:01:27.340Z,96675.86
2018-11-02T02:03:54.681Z,96676.34
2018-11-02T02:06:21.969Z,96682.59
2018-11-02T02:08:49.213Z,96686.60
2018-11-02T02:11:16.490Z,96688.34
2018-11-02T02:13:43.774Z,96685.11
2018-11-02T02:16:11.040Z,96683.73
2018-11-02T02:18:38.258Z,96690.98
2018-11-02T02:21:05.592Z,96684.36
2018-11-02T02:23:32.826Z,96690.29
2018-11-02T02:26:00.158Z,96699.13
2018-11-02T02:28:27.492Z,96709.16
2018-11-02T02:30:54.782Z,96714.50
2018-11-02T02:33:22.082Z,96713.91
2018-11-02T02:35:49.371Z,96714.81
2018-11-02T02:38:16.577Z,96713.62
2018-11-02T02:40:43.938Z,96713.94
2018-11-02T02:43:11.216Z,96713.84
2018-11-02T02:45:38.883Z,96716.73
2018-11-02T02:48:06.070Z,96705.75
2018-11-02T02:50:33.353Z,96708.27
2018-11-02T02:53:00.595Z,96712.58
2018-11-02T02:55:27.891Z,96715.49
2018-11-02T02:57:55.195Z,96717.05
2018-11-02T03:00:22.420Z,96720.92
2018-11-02T03:02:49.648Z,96724.69
2018-11-02T03:05:16.904Z,96732.95
2018-11-02T03:07:44.190Z,96733.86
2018-11-02T03:10:11.490Z,96751.73
2018-11-02T03:12:38.946Z,96755.48
2018-11-02T03:15:06.515Z,96761.56
2018-11-02T03:17:34.063Z,96758.27
2018-11-02T03:20:01.299Z,96757.80
2018-11-02T03:22:28.625Z,96758.86
2018-11-02T03:24:55.831Z,96757.30
2018-11-02T03:27:23.096Z,96754.33
2018-11-02T03:29:50.322Z,96751.10
2018-11-02T03:32:17.566Z,96748.63
2018-11-02T03:34:44.808Z,96742.97
2018-11-02T03:37:12.048Z,96744.55
2018-11-02T03:39:39.382Z,96744.17
2018-11-02T03:42:06.902Z,96741.50
2018-11-02T03:44:34.214Z,96750.11
2018-11-02T03:47:01.397Z,96757.34
2018-11-02T03:49:28.657Z,96758.45
2018-11-02T03:51:55.916Z,96763.09
2018-11-02T03:54:23.205Z,96765.23
2018-11-02T03:56:50.791Z,96766.56
2018-11-02T03:59:17.980Z,96773.61
2018-11-02T04:01:45.798Z,96780.02
2018-11-02T04:04:13.019Z,96789.34
2018-11-02T04:06:40.417Z,96799.55
2018-11-02T04:09:08.264Z,96803.55
2018-11-02T04:11:35.599Z,96815.19
2018-11-02T04:14:02.990Z,96822.36
2018-11-02T04:16:30.277Z,96821.39
2018-11-02T04:18:57.530Z,96825.40
2018-11-02T04:21:24.807Z,96826.81
2018-11-02T04:23:52.028Z,96832.70
2018-11-02T04:26:19.259Z,96829.08
2018-11-02T04:28:46.508Z,96829.16
2018-11-02T04:31:13.799Z,96828.77
2018-11-02T04:33:41.079Z,96830.67
2018-11-02T04:36:08.374Z,96825.59
2018-11-02T04:38:35.666Z,96825.38
2018-11-02T04:41:02.925Z,96821.20
2018-11-02T04:43:30.179Z,96818.41
2018-11-02T04:45:57.391Z,96812.12
2018-11-02T04:48:24.693Z,96812.12
2018-11-02T04:50:52.035Z,96816.71
2018-11-02T04:53:19.296Z,96821.73
2018-11-02T04:55:46.551Z,96822.73
2018-11-02T04:58:13.889Z,96829.91
2018-11-02T05:00:41.111Z,96826.03
2018-11-02T05:03:08.394Z,96825.30
2018-11-02T05:05:35.654Z,96823.20
2018-11-02T05:08:02.908Z,96827.94
2018-11-02T05:10:30.188Z,96834.41
2018-11-02T05:12:57.466Z,96837.26
2018-11-02T05:15:24.732Z,96844.38
2018-11-02T05:17:51.999Z,96840.84
2018-11-02T05:20:19.299Z,96839.43
2018-11-02T05:22:46.580Z,96838.20
2018-11-02T05:25:13.889Z,96838.84
2018-11-02T05:27:41.172Z,96848.92
2018-11-02T05:30:09.262Z,96844.52
2018-11-02T05:32:36.585Z,96845.57
2018-11-02T05:35:03.916Z,96843.93
2018-11-02T05:37:31.239Z,96854.16
2018-11-02T05:39:58.553Z,96854.55
2018-11-02T05:42:25.771Z,96863.27
2018-11-02T05:44:53.021Z,96867.80
2018-11-02T05:47:20.393Z,96866.12
2018-11-02T05:49:47.657Z,96862.30
2018-11-02T05:52:15.027Z,96857.01
2018-11-02T05:54:42.302Z,96860.16
2018-11-02T05:57:09.824Z,96865.42
2018-11-02T05:59:37.083Z,96862.19
2018-11-02T06:02:04.476Z,96866.37
2018-11-02T06:04:31.725Z,96869.72
2018-11-02T06:06:59.018Z,96860.08
2018-11-02T06:09:26.410Z,96872.31
2018-11-02T06:11:53.708Z,96870.38
2018-11-02T06:14:20.943Z,96873.88
2018-11-02T06:16:48.294Z,96875.34
2018-11-02T06:19:16.303Z,96883.37
2018-11-02T06:21:44.080Z,96887.96
2018-11-02T06:24:11.324Z,96899.02
2018-11-02T06:26:38.602Z,96899.84
2018-11-02T06:29:05.838Z,96911.48
2018-11-02T06:31:33.070Z,96916.94
2018-11-02T06:34:00.324Z,96922.23
2018-11-02T06:36:27.739Z,96926.78
2018-11-02T06:38:55.147Z,96927.93
2018-11-02T06:41:22.374Z,96929.29
2018-11-02T06:43:49.815Z,96934.59
2018-11-02T06:46:17.186Z,96931.15
2018-11-02T06:48:44.506Z,96932.79
2018-11-02T06:51:11.815Z,96941.59
2018-11-02T06:53:39.075Z,96948.70
2018-11-02T06:56:06.443Z,96963.50
2018-11-02T06:58:33.893Z,96968.31
2018-11-02T07:01:01.251Z,96967.01
2018-11-02T07:03:28.498Z,96968.27
2018-11-02T07:05:56.125Z,96964.55
2018-11-02T07:08:23.672Z,96971.14
2018-11-02T07:10:51.189Z,96973.92
2018-11-02T07:13:18.478Z,96967.46
2018-11-02T07:15:46.155Z,96965.10
2018-11-02T07:18:13.450Z,96966.50
2018-11-02T07:20:40.712Z,96983.13
2018-11-02T07:23:08.028Z,96981.02
2018-11-02T07:25:35.384Z,96983.87
2018-11-02T07:28:02.617Z,96987.94
2018-11-02T07:30:29.963Z,96989.46
2018-11-02T07:32:57.237Z,96985.88
2018-11-02T07:35:24.481Z,96986.53
2018-11-02T07:37:51.743Z,96991.05
2018-11-02T07:40:18.967Z,96998.08
2018-11-02T07:42:46.167Z,96995.02
2018-11-02T07:45:13.410Z,97005.66
2018-11-02T07:47:40.794Z,97011.64
2018-11-02T07:50:09.444Z,97024.52
2018-11-02T07:52:36.745Z,97015.03
2018-11-02T07:55:05.068Z,97011.76
2018-11-02T07:57:32.321Z,97022.95
2018-11-02T07:59:59.605Z,97024.78
2018-11-02T08:02:26.860Z,97033.17
2018-11-02T08:04:54.138Z,97025.11
2018-11-02T08:07:21.388Z,97025.67
2018-11-02T08:09:48.627Z,97027.52
2018-11-02T08:12:15.910Z,97017.48
2018-11-02T08:17:07.994Z,97010.47
2018-11-02T08:19:35.257Z,97005.23
2018-11-02T08:22:02.506Z,97010.58
2018-11-02T08:24:29.813Z,97011.98
2018-11-02T08:26:57.051Z,96980.03
2018-11-02T08:29:24.343Z,97018.19
2018-11-02T08:31:51.677Z,97011.89
2018-11-02T08:34:18.868Z,97007.82
2018-11-02T08:36:46.151Z,97006.63
2018-11-02T08:39:13.461Z,96999.89
2018-11-02T08:41:40.933Z,97002.92
2018-11-02T08:44:08.512Z,97010.36
2018-11-02T08:46:35.968Z,97015.84
2018-11-02T08:49:03.284Z,97018.02
2018-11-02T08:51:30.547Z,97020.09
2018-11-02T08:53:57.970Z,97019.27
2018-11-02T08:56:25.227Z,97023.35
2018-11-02T08:58:52.797Z,97029.98
2018-11-02T09:01:19.887Z,97039.71
2018-11-02T09:03:47.141Z,97039.39
2018-11-02T09:06:14.416Z,97039.48
2018-11-02T09:08:41.632Z,97040.05
2018-11-02T09:11:08.864Z,97039.53
2018-11-02T09:13:36.128Z,97033.98
2018-11-02T09:16:03.373Z,97024.20
2018-11-02T09:18:30.671Z,97013.39
2018-11-02T09:20:57.885Z,97017.88
2018-11-02T09:23:25.177Z,97018.92
2018-11-02T09:25:52.403Z,97025.42
2018-11-02T09:28:19.755Z,97025.92
2018-11-02T09:30:47.063Z,97025.64
2018-11-02T09:33:14.364Z,97031.95
2018-11-02T09:35:41.602Z,97032.27
2018-11-02T09:38:08.864Z,97042.45
2018-11-02T09:40:36.211Z,97044.08
2018-11-02T09:43:03.447Z,97054.62
2018-11-02T09:45:33.069Z,97058.97
2018-11-02T09:48:00.473Z,97070.29
2018-11-02T09:50:27.830Z,97063.93
2018-11-02T09:52:55.143Z,97054.62
2018-11-02T09:55:22.485Z,97047.92
2018-11-02T09:57:49.937Z,97043.50
2018-11-02T10:00:17.224Z,97043.77
2018-11-02T10:02:44.453Z,96977.84
2018-11-02T10:05:12.293Z,97034.98
2018-11-02T10:07:40.362Z,97036.42
2018-11-02T10:10:09.024Z,97033.10
2018-11-02T10:12:36.526Z,97034.70
2018-11-02T10:15:04.405Z,97041.48
2018-11-02T10:17:31.786Z,97040.84
2018-11-02T10:19:59.059Z,97047.12
2018-11-02T10:22:26.317Z,97029.31
2018-11-02T10:24:53.674Z,97016.97
2018-11-02T10:27:20.988Z,97020.48
2018-11-02T10:29:48.269Z,97024.47
2018-11-02T10:32:15.712Z,97020.75
2018-11-02T10:34:43.015Z,97023.41
2018-11-02T10:37:10.268Z,97023.28
2018-11-02T10:39:37.724Z,97027.00
2018-11-02T10:42:07.388Z,97015.77
2018-11-02T10:44:36.779Z,97021.59
2018-11-02T10:47:05.366Z,97022.02
2018-11-02T10:49:32.665Z,97018.27
2018-11-02T10:51:59.861Z,97014.90
2018-11-02T10:54:27.176Z,97013.79
2018-11-02T10:56:54.466Z,97018.73
2018-11-02T10:59:21.720Z,97020.03
2018-11-02T11:01:55.601Z,97022.46
2018-11-02T11:04:22.850Z,97022.46
2018-11-02T11:06:50.188Z,97029.72
2018-11-02T11:09:17.384Z,97034.48
2018-11-02T11:11:44.824Z,97038.63
2018-11-02T11:14:11.941Z,97034.70
2018-11-02T11:16:39.203Z,97041.05
2018-11-02T11:19:07.396Z,97033.17
2018-11-02T11:21:34.784Z,97038.67
2018-11-02T11:24:02.078Z,97032.70
2018-11-02T11:26:29.330Z,97021.70
2018-11-02T11:28:56.622Z,97037.38
2018-11-02T11:31:23.890Z,97025.67
2018-11-02T11:33:51.160Z,97013.23
2018-11-02T11:36:18.458Z,97012.27
2018-11-02T11:38:45.762Z,97014.57
2018-11-02T11:41:13.037Z,97021.42
2018-11-02T11:43:40.362Z,97020.45
2018-11-02T11:46:07.673Z,97032.83
2018-11-02T11:48:34.976Z,97031.17
2018-11-02T11:51:02.211Z,97036.31
2018-11-02T11:53:29.441Z,97002.15
2018-11-02T11:58:29.845Z,97040.23
2018-11-02T12:00:57.156Z,97048.03
2018-11-02T12:10:26.185Z,97050.54
2018-11-02T12:12:53.631Z,97049.86
2018-11-02T12:15:21.828Z,97049.95
2018-11-02T12:17:49.670Z,97043.89
2018-11-02T12:20:23.163Z,97053.70
2018-11-02T12:22:52.640Z,97054.16
2018-11-02T12:25:19.934Z,97050.64
2018-11-02T12:27:47.231Z,97055.77
2018-11-02T12:32:40.487Z,97058.20
2018-11-02T12:35:09.292Z,97062.92
2018-11-02T12:37:36.628Z,97062.48
2018-11-02T12:40:05.380Z,97061.97
2018-11-02T12:42:32.632Z,97065.42
2018-11-02T12:44:59.891Z,97067.02
2018-11-02T12:47:27.286Z,97055.41
2018-11-02T12:49:54.718Z,97062.33
2018-11-02T12:52:21.787Z,97062.95
2018-11-02T12:54:49.049Z,97061.06
2018-11-02T12:57:16.676Z,97062.08
2018-11-02T12:59:43.924Z,97067.59
2018-11-02T13:02:11.148Z,97057.92
2018-11-02T13:04:38.414Z,97058.04
2018-11-02T13:07:05.771Z,97054.52
2018-11-02T13:09:33.036Z,97053.66
2018-11-02T13:12:00.205Z,97053.66
2018-11-02T13:14:27.449Z,97056.52
2018-11-02T13:16:54.690Z,97053.42
2018-11-02T13:19:21.927Z,97048.77
2018-11-02T13:21:49.269Z,97044.03
2018-11-02T13:24:16.785Z,97045.48
2018-11-02T13:26:44.595Z,97050.27
2018-11-02T13:29:11.963Z,97055.66
2018-11-02T13:31:39.209Z,97064.10
2018-11-02T13:34:06.428Z,97069.47
2018-11-02T13:36:33.896Z,97068.78
2018-11-02T13:39:01.060Z,97077.28
2018-11-02T13:41:28.316Z,97080.02
2018-11-02T13:43:55.610Z,97071.22
2018-11-02T13:46:22.896Z,97070.21
2018-11-02T13:48:50.138Z,97067.49
2018-11-02T13:51:17.380Z,97073.32
2018-11-02T13:53:44.680Z,97077.72
2018-11-02T13:56:11.925Z,97075.52
2018-11-02T13:58:39.175Z,97059.24
2018-11-02T14:01:06.527Z,97074.09
2018-11-02T14:03:33.696Z,97076.48
2018-11-02T14:06:01.156Z,97076.84
2018-11-02T14:08:28.397Z,97043.91
2018-11-02T14:10:55.671Z,97078.73
2018-11-02T14:13:22.977Z,97079.51
2018-11-02T14:15:50.223Z,97078.20
2018-11-02T14:18:17.501Z,97086.83
2018-11-02T14:20:44.769Z,97088.63
2018-11-02T14:23:12.044Z,97088.98
2018-11-02T14:25:39.344Z,97092.36
2018-11-02T14:28:06.641Z,97094.40
2018-11-02T14:30:33.901Z,97089.02
2018-11-02T14:33:01.162Z,97080.99
2018-11-02T14:35:28.440Z,97079.05
2018-11-02T14:37:55.669Z,97079.36
2018-11-02T14:40:22.862Z,97090.04
2018-11-02T14:42:50.201Z,97094.55
2018-11-02T14:45:17.482Z,97099.56
2018-11-02T14:47:45.386Z,97092.05
2018-11-02T14:50:12.665Z,97093.30
2018-11-02T14:52:39.943Z,97104.22
2018-11-02T14:55:07.427Z,97111.27
2018-11-02T14:57:34.679Z,97113.30
2018-11-02T15:00:01.930Z,97121.88
2018-11-02T15:02:29.202Z,97126.72
2018-11-02T15:04:56.439Z,97129.75
2018-11-02T15:07:24.639Z,97125.55
2018-11-02T15:09:51.874Z,97128.83
2018-11-02T15:12:19.179Z,97133.54
2018-11-02T15:14:46.471Z,97143.14
2018-11-02T15:17:14.267Z,97146.35
2018-11-02T15:19:41.867Z,97148.77
2018-11-02T15:22:09.105Z,97154.48
2018-11-02T15:24:36.336Z,97156.09
2018-11-02T15:27:03.588Z,97170.72
2018-11-02T15:29:30.855Z,97169.98
2018-11-02T15:31:58.073Z,97169.34
2018-11-02T15:34:25.958Z,97171.78
2018-11-02T15:36:53.155Z,97166.98
2018-11-02T15:39:20.431Z,97165.23
2018-11-02T15:41:47.615Z,97172.50
2018-11-02T15:44:14.911Z,97179.69
2018-11-02T15:46:42.106Z,97179.77
2018-11-02T15:49:09.461Z,97187.89
2018-11-02T15:51:36.737Z,97190.88
2018-11-02T15:54:04.265Z,97189.97
2018-11-02T15:56:31.488Z,97191.92
2018-11-02T15:58:58.750Z,97196.86
2018-11-02T16:01:26.027Z,97200.01
2018-11-02T16:03:53.335Z,97199.83
2018-11-02T16:06:20.593Z,97192.45
2018-11-02T16:08:47.956Z,97198.97
2018-11-02T16:11:15.254Z,97205.05
2018-11-02T16:13:42.604Z,97206.42
2018-11-02T16:16:09.851Z,97208.75
2018-11-02T16:18:37.183Z,97206.33
2018-11-02T16:21:04.665Z,97204.28
2018-11-02T16:23:31.974Z,97204.84
2018-11-02T16:25:59.222Z,97208.53
2018-11-02T16:28:26.526Z,97220.34
2018-11-02T16:30:53.742Z,97229.02
2018-11-02T16:33:21.056Z,97231.23
2018-11-02T16:35:48.292Z,97225.44
2018-11-02T16:38:15.588Z,97227.67
2018-11-02T16:40:42.951Z,97228.77
2018-11-02T16:43:10.191Z,97231.66
2018-11-02T16:45:38.003Z,97242.21
2018-11-02T16:48:05.449Z,97249.41
2018-11-02T16:50:32.621Z,97242.78
2018-11-02T16:52:59.843Z,97252.88
2018-11-02T16:55:27.116Z,97261.45
2018-11-02T16:57:54.543Z,97270.39
2018-11-02T17:00:22.067Z,97277.80
2018-11-02T17:02:49.866Z,97281.90
2018-11-02T17:05:17.674Z,97284.31
2018-11-02T17:07:44.882Z,97298.02
2018-11-02T17:10:13.202Z,97305.84
2018-11-02T17:12:41.034Z,97309.00
2018-11-02T17:15:08.709Z,97269.76
2018-11-02T17:17:36.092Z,97300.88
2018-11-02T17:20:04.062Z,97318.34
2018-11-02T17:22:31.480Z,97328.09
2018-11-02T17:24:58.707Z,97338.20
2018-11-02T17:27:25.993Z,97335.40
2018-11-02T17:29:53.279Z,97342.11
2018-11-02T17:32:20.825Z,97346.13
2018-11-02T17:34:48.161Z,97343.41
2018-11-02T17:37:15.479Z,97345.88
2018-11-02T17:39:42.746Z,97336.89
2018-11-02T17:42:10.029Z,97338.45
2018-11-02T17:44:37.308Z,97339.94
2018-11-02T17:47:04.628Z,97338.83
2018-11-02T17:49:31.852Z,97335.55
2018-11-02T17:51:59.107Z,97340.69
2018-11-02T17:54:26.349Z,97350.43
2018-11-02T17:56:53.624Z,97351.30
2018-11-02T17:59:20.910Z,97340.02
2018-11-02T18:01:48.157Z,97345.58
2018-11-02T18:04:15.461Z,97350.69
2018-11-02T18:06:42.708Z,97351.93
2018-11-02T18:09:10.583Z,97346.59
2018-11-02T18:11:37.961Z,97355.20
2018-11-02T18:14:05.251Z,97360.95
2018-11-02T18:16:32.633Z,97363.56
2018-11-02T18:18:59.914Z,97369.08
2018-11-02T18:21:27.200Z,97379.87
2018-11-02T18:23:54.440Z,97384.86
2018-11-02T18:26:21.757Z,97381.72
2018-11-02T18:28:48.968Z,97380.34
2018-11-02T18:31:16.273Z,97386.77
2018-11-02T18:33:44.240Z,97395.13
2018-11-02T18:36:11.779Z,97388.28
2018-11-02T18:38:38.936Z,97392.97
2018-11-02T18:41:06.349Z,97388.69
2018-11-02T18:43:33.742Z,97343.81
2018-11-02T18:46:00.991Z,97390.37
2018-11-02T18:48:28.474Z,97392.97
2018-11-02T18:50:55.705Z,97400.41
2018-11-02T18:53:22.919Z,97407.30
2018-11-02T18:55:50.223Z,97402.77
2018-11-02T18:58:17.569Z,97398.80
2018-11-02T19:00:44.877Z,97396.25
2018-11-02T19:03:12.166Z,97399.55
2018-11-02T19:05:39.460Z,97398.25
2018-11-02T19:08:06.686Z,97403.22
2018-11-02T19:10:33.865Z,97400.72
2018-11-02T19:13:01.157Z,97407.61
2018-11-02T19:15:28.460Z,97410.83
2018-11-02T19:17:55.754Z,97404.59
2018-11-02T19:20:23.034Z,97411.66
2018-11-02T19:22:50.288Z,97410.97
2018-11-02T19:25:17.520Z,97414.41
2018-11-02T19:27:45.369Z,97405.45
2018-11-02T19:30:13.321Z,97406.30
2018-11-02T19:32:40.634Z,97409.05
2018-11-02T19:35:08.480Z,97407.54
2018-11-02T19:37:35.597Z,97401.25
2018-11-02T19:40:03.001Z,97405.22
2018-11-02T19:42:30.272Z,97401.86
2018-11-02T19:44:57.654Z,97414.56
2018-11-02T19:47:29.525Z,97422.16
2018-11-02T19:49:56.835Z,97416.58
2018-11-02T19:52:24.154Z,97414.12
2018-11-02T19:54:51.353Z,97418.47
2018-11-02T19:57:18.778Z,97420.31
2018-11-02T19:59:45.955Z,97428.51
2018-11-02T20:02:13.201Z,97427.45
2018-11-02T20:04:40.547Z,97424.16
2018-11-02T20:07:07.829Z,97431.72
2018-11-02T20:09:35.164Z,97438.84
2018-11-02T20:12:02.301Z,97440.52
2018-11-02T20:14:29.528Z,97442.74
2018-11-02T20:16:56.760Z,97444.20
2018-11-02T20:19:24.022Z,97451.48
2018-11-02T20:21:51.254Z,97455.06
2018-11-02T20:24:18.534Z,97452.62
2018-11-02T20:26:45.788Z,97454.33
2018-11-02T20:29:13.046Z,97455.09
2018-11-02T20:31:40.530Z,97447.41
2018-11-02T20:34:07.687Z,97452.48
2018-11-02T20:36:35.008Z,97457.63
2018-11-02T20:39:02.450Z,97461.53
2018-11-02T20:41:29.667Z,97455.47
2018-11-02T20:43:57.042Z,97461.75
2018-11-02T20:46:24.363Z,97469.41
2018-11-02T20:48:51.694Z,97459.92
2018-11-02T20:51:18.846Z,97459.00
2018-11-02T20:53:46.135Z,97466.17
2018-11-02T20:56:13.567Z,97351.39
2018-11-02T20:58:40.878Z,97470.64
2018-11-02T21:01:08.200Z,97471.38
2018-11-02T21:03:35.508Z,97480.59
2018-11-02T21:06:02.757Z,97480.66
2018-11-02T21:08:30.161Z,97481.10
2018-11-02T21:10:57.270Z,97492.31
2018-11-02T21:13:24.579Z,97492.91
2018-11-02T21:15:51.887Z,97486.31
2018-11-02T21:18:19.345Z,97492.38
2018-11-02T21:20:46.681Z,97489.86
2018-11-02T21:23:13.938Z,97497.96
2018-11-02T21:25:41.221Z,97502.53
2018-11-02T21:28:08.484Z,97505.52
2018-11-02T21:30:35.751Z,97495.64
2018-11-02T21:33:02.972Z,97504.81
2018-11-02T21:35:30.298Z,97498.97
2018-11-02T21:37:57.599Z,97498.81
2018-11-02T21:40:25.415Z,97499.63
2018-11-02T21:42:52.742Z,97506.46
2018-11-02T21:45:21.204Z,97505.86
2018-11-02T21:47:49.268Z,97514.48
2018-11-02T21:50:16.876Z,97515.56
2018-11-02T21:52:44.246Z,97512.42
2018-11-02T21:55:11.503Z,97509.77
2018-11-02T21:57:38.823Z,97507.81
2018-11-02T22:00:08.139Z,97513.94
2018-11-02T22:02:35.449Z,97514.98
2018-11-02T22:05:02.853Z,97519.95
2018-11-02T22:07:30.170Z,97516.93
2018-11-02T22:09:57.326Z,97518.65
2018-11-02T22:12:24.554Z,97516.67
2018-11-02T22:14:51.822Z,97522.02
2018-11-02T22:17:19.108Z,97521.25
2018-11-02T22:19:46.440Z,97523.47
2018-11-02T22:22:13.718Z,97524.23
2018-11-02T22:24:41.054Z,97520.06
2018-11-02T22:27:08.376Z,97521.37
2018-11-02T22:29:35.561Z,97521.28
2018-11-02T22:32:02.832Z,97518.00
2018-11-02T22:34:30.132Z,97513.86
2018-11-02T22:36:57.323Z,97514.09
2018-11-02T22:39:24.580Z,97516.08
2018-11-02T22:41:51.877Z,97513.06
2018-11-02T22:44:19.094Z,97515.30
2018-11-02T22:46:46.310Z,97514.41
2018-11-02T22:49:13.562Z,97520.24
2018-11-02T22:51:40.774Z,97519.56
2018-11-02T22:54:08.175Z,97525.63
2018-11-02T22:56:35.423Z,97530.62
2018-11-02T22:59:02.660Z,97527.30
2018-11-02T23:01:30.146Z,97536.08
2018-11-02T23:03:59.110Z,97534.25
2018-11-02T23:06:26.570Z,97539.30
2018-11-02T23:08:54.447Z,97536.32
2018-11-02T23:11:21.948Z,97530.09
2018-11-02T23:13:49.186Z,97531.73
2018-11-02T23:16:16.525Z,97527.16
2018-11-02T23:18:43.753Z,97531.91
2018-11-02T23:21:11.005Z,97525.92
2018-11-02T23:23:38.233Z,97526.36
2018-11-02T23:26:05.542Z,97525.39
2018-11-02T23:28:32.818Z,97525.98
2018-11-02T23:31:00.106Z,97518.38
2018-11-02T23:33:27.390Z,97511.12
2018-11-02T23:35:54.671Z,97505.53
2018-11-02T23:38:21.978Z,97515.87
2018-11-02T23:40:49.238Z,97513.19
2018-11-02T23:43:16.517Z,97515.46
2018-11-02T23:45:43.944Z,97520.30
2018-11-02T23:48:16.283Z,97521.33
2018-11-02T23:50:43.568Z,97536.11
2018-11-02T23:53:10.884Z,97541.79
2018-11-02T23:55:38.148Z,97546.22
2018-11-02T23:58:05.591Z,97548.23
